createdAt,value
2023-09-08T00:02:41.332Z,64.3125
2023-09-08T00:07:42.340Z,64.54795
2023-09-08T00:12:43.340Z,64.54795
2023-09-08T00:17:44.393Z,64.54795
2023-09-08T00:22:45.503Z,64.54795
2023-09-08T00:27:46.643Z,64.54795
2023-09-08T00:32:47.723Z,64.54795
2023-09-08T00:37:49.216Z,64.78431
2023-09-08T00:42:51.589Z,64.78431
2023-09-08T00:47:53.254Z,64.78431
2023-09-08T00:52:54.411Z,64.78431
2023-09-08T00:57:55.714Z,64.78431
2023-09-08T01:02:56.769Z,64.78431
2023-09-08T01:07:57.986Z,64.78431
2023-09-08T01:12:59.677Z,64.78431
2023-09-08T01:18:01.034Z,65.02161
2023-09-08T01:23:03.239Z,65.02161
2023-09-08T01:28:06.157Z,65.25984
2023-09-08T01:33:07.585Z,65.25984
2023-09-08T01:38:08.617Z,65.25984
2023-09-08T01:43:09.658Z,65.25984
2023-09-08T01:48:10.621Z,65.49901
2023-09-08T01:53:11.571Z,65.25984
2023-09-08T01:58:12.476Z,65.49901
2023-09-08T02:03:13.761Z,65.49901
2023-09-08T02:08:14.720Z,65.49901
2023-09-08T02:13:15.674Z,65.49901
2023-09-08T02:18:16.694Z,65.73913
2023-09-08T02:23:17.672Z,65.73913
2023-09-08T02:28:18.686Z,65.73913
2023-09-08T02:33:19.673Z,65.73913
2023-09-08T02:38:20.623Z,65.73913
2023-09-08T02:43:22.211Z,65.73913
2023-09-08T02:48:23.536Z,65.9802
2023-09-08T02:53:24.812Z,65.9802
2023-09-08T02:58:26.098Z,65.9802
2023-09-08T03:03:27.123Z,65.9802
2023-09-08T03:08:28.174Z,65.9802
2023-09-08T03:13:29.238Z,65.9802
2023-09-08T03:18:30.185Z,65.9802
2023-09-08T03:23:31.175Z,65.9802
2023-09-08T03:28:32.219Z,65.9802
2023-09-08T03:33:33.500Z,65.9802
2023-09-08T03:38:34.744Z,65.9802
2023-09-08T03:43:36.338Z,65.9802
2023-09-08T03:48:37.637Z,66.22222
2023-09-08T03:53:39.163Z,65.9802
2023-09-08T03:58:40.330Z,65.73913
2023-09-08T04:03:41.257Z,65.73913
2023-09-08T04:08:42.235Z,65.73913
2023-09-08T04:13:43.211Z,65.9802
2023-09-08T04:18:44.189Z,65.9802
2023-09-08T04:23:45.243Z,65.9802
2023-09-08T04:28:46.195Z,65.9802
2023-09-08T04:33:47.142Z,65.9802
2023-09-08T04:38:48.131Z,65.9802
2023-09-08T04:43:49.007Z,65.9802
2023-09-08T04:48:49.905Z,65.9802
2023-09-08T04:53:50.830Z,65.73913
2023-09-08T04:58:51.762Z,65.73913
2023-09-08T05:03:52.846Z,65.49901
2023-09-08T05:08:53.938Z,65.49901
2023-09-08T05:13:54.924Z,65.25984
2023-09-08T05:18:55.989Z,65.02161
2023-09-08T05:23:56.933Z,64.78431
2023-09-08T05:28:57.843Z,64.78431
2023-09-08T05:33:58.901Z,64.54795
2023-09-08T05:38:59.856Z,64.3125
2023-09-08T05:44:00.804Z,64.07797
2023-09-08T05:49:01.768Z,63.61165
2023-09-08T05:54:02.689Z,63.37984
2023-09-08T05:59:03.721Z,63.14894
2023-09-08T06:04:04.779Z,62.91892
2023-09-08T06:09:05.767Z,62.91892
2023-09-08T06:14:06.708Z,62.46154
2023-09-08T06:19:07.621Z,62.23417
2023-09-08T06:24:08.621Z,62.00766
2023-09-08T06:29:09.577Z,61.55725
2023-09-08T06:34:10.698Z,61.11027
2023-09-08T06:39:11.755Z,60.88805
2023-09-08T06:44:12.757Z,60.88805
2023-09-08T06:49:13.775Z,60.66667
2023-09-08T06:54:14.744Z,60.44612
2023-09-08T06:59:15.776Z,60.22642
2023-09-08T07:04:17.064Z,59.78947
2023-09-08T07:09:18.171Z,59.35581
2023-09-08T07:14:19.117Z,59.35581
2023-09-08T07:19:20.095Z,58.92537
2023-09-08T07:24:21.171Z,58.71136
2023-09-08T07:29:22.434Z,59.35581
2023-09-08T07:34:23.681Z,60.00753
2023-09-08T07:39:24.928Z,59.57223
2023-09-08T07:44:26.305Z,60.22642
2023-09-08T07:49:27.646Z,59.78947
2023-09-08T07:54:28.617Z,58.71136
2023-09-08T07:59:29.622Z,58.07407
2023-09-08T08:04:30.620Z,57.86322
2023-09-08T08:09:31.588Z,57.86322
2023-09-08T08:14:32.508Z,57.23529
2023-09-08T08:19:33.470Z,56.82051
2023-09-08T08:24:34.434Z,57.23529
2023-09-08T08:29:35.550Z,56.40876
2023-09-08T08:34:36.537Z,55.5942
2023-09-08T08:39:37.573Z,55.79673
2023-09-08T08:44:38.541Z,55.5942
2023-09-08T08:49:39.483Z,55.39241
2023-09-08T08:54:40.584Z,55.19134
2023-09-08T08:59:41.545Z,52.4507
2023-09-08T09:04:42.571Z,52.83392
2023-09-08T09:09:43.647Z,54.19678
2023-09-08T09:14:44.720Z,54.39427
2023-09-08T09:19:45.770Z,54.59246
2023-09-08T09:24:46.856Z,54.59246
2023-09-08T09:29:47.898Z,54.79137
2023-09-08T09:34:48.845Z,55.79673
2023-09-08T09:39:49.825Z,54.79137
2023-09-08T09:44:50.762Z,50.94444
2023-09-08T09:49:51.670Z,48.05405
2023-09-08T09:54:52.696Z,50.57439
2023-09-08T09:59:53.631Z,50.7591
2023-09-08T10:04:54.713Z,50.0241
2023-09-08T10:09:55.638Z,48.7619
2023-09-08T10:14:56.890Z,51.13043
2023-09-08T10:19:57.835Z,50.94444
2023-09-08T10:24:58.769Z,50.57439
2023-09-08T10:29:59.754Z,51.13043
2023-09-08T10:35:00.791Z,51.69231
2023-09-08T10:40:01.958Z,52.07018
2023-09-08T10:45:02.948Z,50.39033
2023-09-08T10:50:03.909Z,50.94444
2023-09-08T10:55:04.849Z,53.21986
2023-09-08T11:00:05.806Z,53.80392
2023-09-08T11:05:06.759Z,53.21986
2023-09-08T11:10:07.727Z,53.80392
2023-09-08T11:15:08.658Z,53.60854
2023-09-08T11:20:09.632Z,52.83392
2023-09-08T11:25:10.734Z,52.07018
2023-09-08T11:30:11.629Z,53.02655
2023-09-08T11:35:12.546Z,52.64198
2023-09-08T11:40:13.842Z,53.02655
2023-09-08T11:45:14.935Z,52.07018
2023-09-08T11:50:15.872Z,52.07018
2023-09-08T11:55:16.906Z,52.26011
2023-09-08T12:00:17.850Z,52.83392
2023-09-08T12:05:18.794Z,54.0
2023-09-08T12:10:19.761Z,52.07018
2023-09-08T12:15:20.685Z,51.69231
2023-09-08T12:20:21.882Z,51.69231
2023-09-08T12:25:23.213Z,51.13043
2023-09-08T12:30:24.525Z,50.0241
2023-09-08T12:35:25.685Z,50.2069
2023-09-08T12:40:26.623Z,49.29915
2023-09-08T12:45:27.552Z,49.66038
2023-09-08T12:50:28.553Z,51.31707
2023-09-08T12:55:29.460Z,50.57439
2023-09-08T13:00:30.522Z,49.11945
2023-09-08T13:05:31.682Z,48.23012
2023-09-08T13:10:32.708Z,49.47945
2023-09-08T13:15:33.747Z,49.11945
2023-09-08T13:20:34.727Z,49.11945
2023-09-08T13:25:35.693Z,48.23012
2023-09-08T13:30:36.832Z,48.23012
2023-09-08T13:35:37.800Z,47.87858
2023-09-08T13:40:38.826Z,47.52941
2023-09-08T13:45:39.778Z,47.52941
2023-09-08T13:50:41.405Z,47.7037
2023-09-08T13:55:45.352Z,48.23012
2023-09-08T14:00:47.549Z,49.84192
2023-09-08T14:05:55.134Z,49.29915
2023-09-08T14:16:02.934Z,49.84192
2023-09-08T14:21:04.269Z,49.66038
2023-09-08T14:26:05.264Z,49.84192
2023-09-08T14:31:06.752Z,52.26011
2023-09-08T14:36:07.762Z,52.07018
2023-09-08T14:41:08.863Z,52.26011
2023-09-08T14:46:09.791Z,52.26011
2023-09-08T14:51:10.786Z,52.07018
2023-09-08T14:56:11.797Z,51.88091
2023-09-08T15:01:12.759Z,52.83392
2023-09-08T15:06:13.802Z,52.64198
2023-09-08T15:11:14.829Z,52.4507
2023-09-08T15:16:16.075Z,53.21986
2023-09-08T15:21:17.155Z,53.21986
2023-09-08T15:26:18.091Z,53.21986
2023-09-08T15:31:19.103Z,53.41385
2023-09-08T15:36:20.202Z,53.80392
2023-09-08T15:41:21.187Z,54.39427
2023-09-08T15:46:22.424Z,54.59246
2023-09-08T15:51:23.712Z,54.59246
2023-09-08T15:56:24.919Z,54.59246
2023-09-08T16:01:26.256Z,54.59246
2023-09-08T16:06:27.570Z,54.79137
2023-09-08T16:11:28.622Z,54.79137
2023-09-08T16:16:29.594Z,55.5942
2023-09-08T16:21:30.513Z,56.40876
2023-09-08T16:26:31.467Z,56.61426
2023-09-08T16:31:32.452Z,56.82051
2023-09-08T16:36:33.409Z,56.61426
2023-09-08T16:41:34.341Z,56.40876
2023-09-08T16:46:35.255Z,57.02752
2023-09-08T16:51:36.206Z,57.02752
2023-09-08T16:56:37.105Z,57.02752
2023-09-08T17:01:38.134Z,57.23529
2023-09-08T17:06:39.169Z,57.44383
2023-09-08T17:11:40.114Z,57.44383
2023-09-08T17:16:41.000Z,57.44383
2023-09-08T17:21:42.078Z,57.65314
2023-09-08T17:26:43.013Z,57.86322
2023-09-08T17:31:43.945Z,58.07407
2023-09-08T17:36:44.917Z,58.28571
2023-09-08T17:41:45.942Z,58.49814
2023-09-08T17:46:46.968Z,58.92537
2023-09-08T17:51:48.103Z,58.92537
2023-09-08T17:56:49.246Z,59.14019
2023-09-08T18:01:50.183Z,59.35581
2023-09-08T18:06:51.209Z,59.35581
2023-09-08T18:11:52.327Z,59.57223
2023-09-08T18:16:53.250Z,59.78947
2023-09-08T18:21:54.370Z,60.00753
2023-09-08T18:26:55.361Z,60.00753
2023-09-08T18:31:56.508Z,60.00753
2023-09-08T18:36:57.612Z,60.00753
2023-09-08T18:41:58.669Z,60.00753
2023-09-08T18:46:59.679Z,60.00753
2023-09-08T18:52:00.732Z,60.00753
2023-09-08T18:57:01.664Z,60.00753
2023-09-08T19:02:02.689Z,59.78947
2023-09-08T19:07:03.610Z,59.78947
2023-09-08T19:12:04.590Z,59.78947
2023-09-08T19:17:05.504Z,60.00753
2023-09-08T19:22:06.480Z,60.22642
2023-09-08T19:27:07.424Z,60.44612
2023-09-08T19:32:08.463Z,60.44612
2023-09-08T19:37:09.397Z,60.66667
2023-09-08T19:42:10.383Z,60.66667
2023-09-08T19:47:11.425Z,60.88805
2023-09-08T19:52:12.365Z,61.33333
2023-09-08T19:57:13.323Z,61.11027
2023-09-08T20:02:14.308Z,61.33333
2023-09-08T20:07:15.265Z,61.33333
2023-09-08T20:12:16.211Z,61.33333
2023-09-08T20:17:17.315Z,61.78203
2023-09-08T20:22:18.367Z,61.78203
2023-09-08T20:27:19.413Z,61.78203
2023-09-08T20:32:20.571Z,61.78203
2023-09-08T20:37:21.574Z,61.78203
2023-09-08T20:42:22.810Z,61.78203
2023-09-08T20:47:24.010Z,61.78203
2023-09-08T20:52:25.222Z,62.00766
2023-09-08T20:57:26.409Z,62.00766
2023-09-08T21:02:27.370Z,62.00766
2023-09-08T21:07:28.314Z,62.00766
2023-09-08T21:12:29.276Z,62.00766
2023-09-08T21:17:30.203Z,62.23417
2023-09-08T21:22:31.200Z,62.23417
2023-09-08T21:27:32.158Z,62.23417
2023-09-08T21:32:33.072Z,62.23417
2023-09-08T21:37:34.050Z,62.46154
2023-09-08T21:42:34.966Z,62.46154
2023-09-08T21:47:35.910Z,62.46154
2023-09-08T21:52:39.122Z,62.46154
2023-09-08T21:57:40.936Z,62.46154
2023-09-08T22:02:42.016Z,62.46154
2023-09-08T22:07:43.042Z,62.46154
2023-09-08T22:12:44.037Z,62.46154
2023-09-08T22:17:45.080Z,62.68979
2023-09-08T22:22:46.160Z,62.68979
2023-09-08T22:27:47.072Z,62.68979
2023-09-08T22:32:48.174Z,62.68979
2023-09-08T22:37:51.507Z,62.68979
2023-09-08T22:42:53.778Z,62.68979
2023-09-08T22:47:54.769Z,62.91892
2023-09-08T22:52:55.839Z,62.91892
2023-09-08T22:57:56.878Z,62.91892
2023-09-08T23:02:58.013Z,62.68979
2023-09-08T23:07:59.115Z,62.91892
2023-09-08T23:13:00.172Z,62.91892
2023-09-08T23:18:01.246Z,62.91892
2023-09-08T23:23:02.413Z,62.91892
2023-09-08T23:28:03.335Z,62.91892
2023-09-08T23:33:04.403Z,62.91892
2023-09-08T23:38:05.494Z,62.91892
2023-09-08T23:43:06.496Z,62.91892
2023-09-08T23:48:07.574Z,62.91892
2023-09-08T23:53:08.658Z,62.91892
2023-09-08T23:58:09.651Z,62.91892
